createdAt,value
2022-07-30T00:00:03.333Z,0
2022-07-30T00:02:29.410Z,0
2022-07-30T00:04:55.520Z,0
2022-07-30T00:07:21.595Z,0
2022-07-30T00:09:47.706Z,0
2022-07-30T00:12:13.789Z,0
2022-07-30T00:14:39.888Z,0
2022-07-30T00:17:04.999Z,0
2022-07-30T00:19:31.087Z,0
2022-07-30T00:21:57.198Z,0
2022-07-30T00:24:23.277Z,0
2022-07-30T00:26:49.391Z,0
2022-07-30T00:29:15.469Z,0
2022-07-30T00:31:41.573Z,0
2022-07-30T00:34:06.681Z,0
2022-07-30T00:36:31.794Z,0
2022-07-30T00:38:56.917Z,0
2022-07-30T00:41:22.038Z,0
2022-07-30T00:43:48.120Z,0
2022-07-30T00:46:14.218Z,0
2022-07-30T00:48:40.317Z,0
2022-07-30T00:51:06.949Z,0
2022-07-30T00:53:32.515Z,0
2022-07-30T00:55:58.617Z,0
2022-07-30T00:58:24.695Z,0
2022-07-30T01:00:50.802Z,0
2022-07-30T01:03:16.891Z,0
2022-07-30T01:05:42.995Z,0
2022-07-30T01:08:09.095Z,0
2022-07-30T01:10:35.171Z,0
2022-07-30T01:13:00.278Z,0
2022-07-30T01:15:26.386Z,0
2022-07-30T01:17:52.486Z,0
2022-07-30T01:20:18.578Z,0
2022-07-30T01:22:44.665Z,0
2022-07-30T01:25:09.781Z,0
2022-07-30T01:27:35.878Z,0
2022-07-30T01:30:01.008Z,0
2022-07-30T01:32:26.107Z,0
2022-07-30T01:34:52.200Z,0
2022-07-30T01:37:18.292Z,0
2022-07-30T01:39:44.396Z,0
2022-07-30T01:42:10.503Z,0
2022-07-30T01:44:36.587Z,0
2022-07-30T01:47:02.682Z,0
2022-07-30T01:49:28.774Z,0
2022-07-30T01:54:20.973Z,0
2022-07-30T01:56:47.072Z,0
2022-07-30T01:59:13.146Z,0
2022-07-30T02:01:39.258Z,0
2022-07-30T02:04:04.374Z,0
2022-07-30T02:06:30.449Z,0
2022-07-30T02:08:56.558Z,0
2022-07-30T02:11:22.654Z,0
2022-07-30T02:13:48.742Z,0
2022-07-30T02:16:14.854Z,0
2022-07-30T02:18:40.927Z,0
2022-07-30T02:21:07.033Z,0
2022-07-30T02:23:32.153Z,0
2022-07-30T02:25:57.273Z,0
2022-07-30T02:28:23.382Z,0
2022-07-30T02:33:15.553Z,0
2022-07-30T02:35:41.647Z,0
2022-07-30T02:38:07.736Z,0
2022-07-30T02:40:33.825Z,0
2022-07-30T02:42:59.933Z,0
2022-07-30T02:45:26.021Z,0
2022-07-30T02:47:52.120Z,0
2022-07-30T02:50:18.216Z,0
2022-07-30T02:52:44.306Z,0
2022-07-30T02:55:10.393Z,0
2022-07-30T02:57:35.501Z,0
2022-07-30T03:00:01.605Z,0
2022-07-30T03:02:27.697Z,0
2022-07-30T03:04:53.797Z,0
2022-07-30T03:07:19.893Z,0
2022-07-30T03:09:45.986Z,0
2022-07-30T03:12:12.075Z,0
2022-07-30T03:14:38.173Z,0
2022-07-30T03:17:03.303Z,0
2022-07-30T03:19:28.404Z,0
2022-07-30T03:21:53.514Z,4
2022-07-30T03:24:18.632Z,4
2022-07-30T03:26:43.755Z,8
2022-07-30T03:29:08.865Z,8
2022-07-30T03:31:33.995Z,12
2022-07-30T03:33:59.108Z,20
2022-07-30T03:36:25.185Z,24
2022-07-30T03:38:51.294Z,36
2022-07-30T03:41:17.397Z,44
2022-07-30T03:43:43.488Z,64
2022-07-30T03:46:09.576Z,84
2022-07-30T03:48:35.696Z,108
2022-07-30T03:51:01.757Z,140
2022-07-30T03:53:27.874Z,180
2022-07-30T03:55:53.954Z,224
2022-07-30T03:58:20.050Z,273
2022-07-30T04:00:46.148Z,333
2022-07-30T04:03:12.258Z,393
2022-07-30T04:05:37.353Z,465
2022-07-30T04:08:03.460Z,530
2022-07-30T04:10:29.548Z,602
2022-07-30T04:12:55.633Z,674
2022-07-30T04:15:21.737Z,754
2022-07-30T04:17:47.836Z,831
2022-07-30T04:20:13.927Z,907
2022-07-30T04:22:39.045Z,983
2022-07-30T04:25:04.159Z,1064
2022-07-30T04:27:30.255Z,1136
2022-07-30T04:29:56.362Z,1212
2022-07-30T04:32:22.460Z,1281
2022-07-30T04:34:48.550Z,1361
2022-07-30T04:37:14.628Z,1433
2022-07-30T04:39:40.735Z,1501
2022-07-30T04:42:06.826Z,1562
2022-07-30T04:44:32.935Z,1634
2022-07-30T04:46:59.021Z,1694
2022-07-30T04:49:25.116Z,1750
2022-07-30T04:51:51.213Z,1807
2022-07-30T04:54:17.318Z,1867
2022-07-30T04:56:42.453Z,1919
2022-07-30T04:59:08.519Z,1979
2022-07-30T05:01:34.613Z,2027
2022-07-30T05:04:00.707Z,2076
2022-07-30T05:06:26.798Z,2120
2022-07-30T05:08:52.895Z,2160
2022-07-30T05:13:45.094Z,2256
2022-07-30T05:16:10.196Z,2296
2022-07-30T05:18:35.312Z,2341
2022-07-30T05:21:00.450Z,2377
2022-07-30T05:23:25.561Z,2413
2022-07-30T05:25:50.676Z,2445
2022-07-30T05:28:15.777Z,2485
2022-07-30T05:30:41.865Z,2525
2022-07-30T05:33:07.979Z,2566
2022-07-30T05:35:34.069Z,2594
2022-07-30T05:38:00.153Z,2630
2022-07-30T05:40:26.251Z,2658
2022-07-30T05:42:52.349Z,2686
2022-07-30T05:45:18.462Z,2710
2022-07-30T05:47:44.526Z,2734
2022-07-30T05:50:10.639Z,2754
2022-07-30T05:52:36.723Z,2774
2022-07-30T05:55:02.830Z,2798
2022-07-30T05:57:28.932Z,2810
2022-07-30T05:59:54.026Z,2835
2022-07-30T06:02:20.123Z,2867
2022-07-30T06:04:46.223Z,2899
2022-07-30T06:07:12.317Z,2923
2022-07-30T06:09:38.416Z,2935
2022-07-30T06:12:04.506Z,2955
2022-07-30T06:14:30.599Z,2971
2022-07-30T06:16:55.739Z,3007
2022-07-30T06:19:20.838Z,3035
2022-07-30T06:21:46.927Z,3067
2022-07-30T06:24:13.029Z,3108
2022-07-30T06:26:39.112Z,3132
2022-07-30T06:29:05.223Z,3164
2022-07-30T06:31:31.294Z,3176
2022-07-30T06:33:57.435Z,3204
2022-07-30T06:36:23.499Z,3232
2022-07-30T06:38:49.583Z,3280
2022-07-30T06:41:15.687Z,3320
2022-07-30T06:43:41.796Z,3361
2022-07-30T06:46:07.889Z,3413
2022-07-30T06:48:33.977Z,3421
2022-07-30T06:50:59.105Z,3389
2022-07-30T06:53:25.168Z,3369
2022-07-30T06:55:51.288Z,3389
2022-07-30T06:58:17.373Z,3373
2022-07-30T07:00:43.483Z,3401
2022-07-30T07:03:09.564Z,3377
2022-07-30T07:05:35.668Z,3389
2022-07-30T07:08:00.789Z,3417
2022-07-30T07:10:25.894Z,3461
2022-07-30T07:12:51.016Z,3461
2022-07-30T07:15:16.118Z,3473
2022-07-30T07:17:42.215Z,3485
2022-07-30T07:20:08.320Z,3485
2022-07-30T07:22:34.418Z,3517
2022-07-30T07:25:00.506Z,3537
2022-07-30T07:27:26.615Z,3565
2022-07-30T07:29:52.694Z,3630
2022-07-30T07:32:18.805Z,3690
2022-07-30T07:34:44.891Z,3718
2022-07-30T07:37:10.979Z,3750
2022-07-30T07:39:37.074Z,3790
2022-07-30T07:42:03.168Z,3834
2022-07-30T07:44:29.259Z,3851
2022-07-30T07:46:54.389Z,3903
2022-07-30T07:49:20.464Z,3903
2022-07-30T07:51:46.571Z,3931
2022-07-30T07:54:12.679Z,3955
2022-07-30T07:56:38.760Z,3963
2022-07-30T07:59:04.848Z,4055
2022-07-30T08:01:30.957Z,4023
2022-07-30T08:03:56.056Z,4023
2022-07-30T08:06:21.179Z,4023
2022-07-30T08:08:46.301Z,4063
2022-07-30T08:11:11.409Z,4091
2022-07-30T08:13:37.508Z,4132
2022-07-30T08:16:03.605Z,4176
2022-07-30T08:18:29.698Z,4148
2022-07-30T08:20:55.794Z,4232
2022-07-30T08:23:21.897Z,4236
2022-07-30T08:25:47.983Z,4248
2022-07-30T08:28:14.099Z,4296
2022-07-30T08:30:40.179Z,4357
2022-07-30T08:33:06.268Z,4461
2022-07-30T08:35:32.368Z,4505
2022-07-30T08:37:58.473Z,4573
2022-07-30T08:40:24.565Z,4758
2022-07-30T08:42:49.663Z,4818
2022-07-30T08:45:15.785Z,5537
2022-07-30T08:47:41.879Z,5248
2022-07-30T08:50:07.981Z,6083
2022-07-30T08:52:34.050Z,5983
2022-07-30T08:55:00.145Z,7296
2022-07-30T08:57:26.227Z,9260
2022-07-30T08:59:51.350Z,7127
2022-07-30T09:02:16.462Z,6083
2022-07-30T09:04:42.557Z,6830
2022-07-30T09:07:08.659Z,7264
2022-07-30T09:09:34.761Z,7758
2022-07-30T09:12:00.858Z,9894
2022-07-30T09:14:26.943Z,11657
2022-07-30T09:16:53.068Z,11769
2022-07-30T09:19:19.141Z,9653
2022-07-30T09:21:45.246Z,11043
2022-07-30T09:24:11.317Z,10529
2022-07-30T09:26:37.419Z,9898
2022-07-30T09:29:03.530Z,8673
2022-07-30T09:31:29.661Z,7573
2022-07-30T09:33:54.732Z,8489
2022-07-30T09:36:20.845Z,8432
2022-07-30T09:38:46.915Z,9167
2022-07-30T09:41:13.025Z,11914
2022-07-30T09:43:39.113Z,11119
2022-07-30T09:46:05.202Z,11753
2022-07-30T09:48:31.301Z,7416
2022-07-30T09:50:56.450Z,8577
2022-07-30T09:53:21.522Z,11508
2022-07-30T09:55:46.672Z,13111
2022-07-30T09:58:11.781Z,13769
2022-07-30T10:00:37.853Z,14392
2022-07-30T10:03:03.980Z,11830
2022-07-30T10:05:30.076Z,7806
2022-07-30T10:07:56.178Z,6268
2022-07-30T10:10:22.303Z,5955
2022-07-30T10:12:48.354Z,6156
2022-07-30T10:15:14.441Z,6886
2022-07-30T10:20:06.647Z,9023
2022-07-30T10:22:32.716Z,9717
2022-07-30T10:24:58.816Z,11107
2022-07-30T10:27:24.915Z,9456
2022-07-30T10:29:50.027Z,8449
2022-07-30T10:32:16.117Z,9717
2022-07-30T10:34:42.287Z,11709
2022-07-30T10:37:08.337Z,12263
2022-07-30T10:39:34.402Z,12709
2022-07-30T10:42:00.507Z,11320
2022-07-30T10:44:26.588Z,7529
2022-07-30T10:46:52.709Z,8461
2022-07-30T10:49:18.097Z,9087
2022-07-30T10:51:42.910Z,9456
2022-07-30T10:54:08.064Z,10256
2022-07-30T10:56:33.166Z,8938
2022-07-30T10:58:59.255Z,8461
2022-07-30T11:01:25.364Z,9260
2022-07-30T11:03:51.436Z,8786
2022-07-30T11:06:17.554Z,7441
2022-07-30T11:08:43.643Z,8617
2022-07-30T11:11:09.727Z,7858
2022-07-30T11:13:35.839Z,7613
2022-07-30T11:16:01.971Z,8232
2022-07-30T11:18:28.017Z,7850
2022-07-30T11:20:54.104Z,7633
2022-07-30T11:23:20.202Z,7963
2022-07-30T11:25:46.308Z,8107
2022-07-30T11:28:11.402Z,8738
2022-07-30T11:30:37.542Z,9047
2022-07-30T11:33:03.604Z,9782
2022-07-30T11:35:29.709Z,12135
2022-07-30T11:37:55.810Z,12404
2022-07-30T11:40:21.883Z,13243
2022-07-30T11:42:47.977Z,13388
2022-07-30T11:45:13.107Z,12701
2022-07-30T11:47:38.213Z,11364
2022-07-30T11:50:03.337Z,10982
2022-07-30T11:52:28.452Z,11079
2022-07-30T11:54:54.791Z,11625
2022-07-30T11:57:20.642Z,14303
2022-07-30T11:59:46.736Z,23708
2022-07-30T12:02:12.841Z,13316
2022-07-30T12:04:38.934Z,8260
2022-07-30T12:07:05.028Z,21042
2022-07-30T12:09:31.119Z,87574
2022-07-30T12:11:57.225Z,69776
2022-07-30T12:14:23.310Z,96472
2022-07-30T12:16:49.411Z,19885
2022-07-30T12:19:15.517Z,109612
2022-07-30T12:21:41.600Z,92682
2022-07-30T12:24:06.707Z,90401
2022-07-30T12:26:32.817Z,80120
2022-07-30T12:28:58.901Z,90015
2022-07-30T12:31:24.999Z,82691
2022-07-30T12:33:51.100Z,16086
2022-07-30T12:36:17.188Z,102480
2022-07-30T12:38:43.299Z,111186
2022-07-30T12:41:08.412Z,110029
2022-07-30T12:43:33.513Z,107299
2022-07-30T12:45:58.643Z,107363
2022-07-30T12:48:23.756Z,109483
2022-07-30T12:50:49.863Z,15741
2022-07-30T12:53:15.947Z,18086
2022-07-30T12:55:42.060Z,105757
2022-07-30T12:58:08.145Z,108744
2022-07-30T13:00:34.243Z,23901
2022-07-30T13:03:00.328Z,52011
2022-07-30T13:05:26.427Z,79253
2022-07-30T13:07:52.524Z,36783
2022-07-30T13:10:18.625Z,90304
2022-07-30T13:12:44.725Z,105692
2022-07-30T13:15:10.805Z,108359
2022-07-30T13:17:36.914Z,99621
2022-07-30T13:20:02.027Z,104343
2022-07-30T13:24:54.209Z,96601
2022-07-30T13:27:20.308Z,89051
2022-07-30T13:29:46.402Z,91943
2022-07-30T13:32:12.498Z,89437
2022-07-30T13:34:38.588Z,94577
2022-07-30T13:37:04.712Z,95059
2022-07-30T13:39:29.819Z,99428
2022-07-30T13:41:54.917Z,90754
2022-07-30T13:44:20.049Z,87638
2022-07-30T13:46:45.162Z,89501
2022-07-30T13:49:11.265Z,91878
2022-07-30T13:51:36.381Z,86128
2022-07-30T13:54:01.516Z,82530
2022-07-30T13:56:27.593Z,69648
2022-07-30T13:58:53.685Z,80731
2022-07-30T14:01:19.779Z,90786
2022-07-30T14:03:45.881Z,100392
2022-07-30T14:06:11.962Z,93453
2022-07-30T14:08:38.063Z,69455
2022-07-30T14:11:04.170Z,17122
2022-07-30T14:13:30.255Z,92585
2022-07-30T14:15:56.363Z,83205
2022-07-30T14:18:22.442Z,52332
2022-07-30T14:20:48.549Z,15878
2022-07-30T14:23:14.652Z,92328
2022-07-30T14:25:39.775Z,89019
2022-07-30T14:28:04.906Z,68587
2022-07-30T14:30:30.987Z,86289
2022-07-30T14:32:57.067Z,48413
2022-07-30T14:35:22.206Z,59592
2022-07-30T14:37:47.320Z,57729
2022-07-30T14:40:13.406Z,79478
2022-07-30T14:42:39.506Z,38486
2022-07-30T14:45:05.587Z,16171
2022-07-30T14:47:31.697Z,82369
2022-07-30T14:49:57.786Z,72282
2022-07-30T14:52:23.895Z,40188
2022-07-30T14:54:49.992Z,18118
2022-07-30T14:57:16.083Z,79574
2022-07-30T14:59:42.174Z,81695
2022-07-30T15:02:08.274Z,13926
2022-07-30T15:04:34.389Z,14388
2022-07-30T15:07:00.470Z,20367
2022-07-30T15:09:25.571Z,70483
2022-07-30T15:11:51.677Z,13516
2022-07-30T15:14:17.767Z,9661
2022-07-30T15:16:43.862Z,10183
2022-07-30T15:19:09.969Z,13420
2022-07-30T15:21:36.052Z,13532
2022-07-30T15:24:02.153Z,9356
2022-07-30T15:26:27.285Z,8963
2022-07-30T15:28:52.397Z,8918
2022-07-30T15:31:17.504Z,11099
2022-07-30T15:33:42.612Z,65889
2022-07-30T15:36:08.708Z,11268
2022-07-30T15:38:34.806Z,56862
2022-07-30T15:41:00.901Z,63030
2022-07-30T15:43:27.014Z,13316
2022-07-30T15:45:53.104Z,39835
2022-07-30T15:48:19.213Z,55737
2022-07-30T15:50:45.304Z,36333
2022-07-30T15:53:11.387Z,26118
2022-07-30T15:55:37.501Z,32575
2022-07-30T15:58:03.585Z,32575
2022-07-30T16:00:29.695Z,47931
2022-07-30T16:02:55.794Z,27210
2022-07-30T16:05:20.896Z,30583
2022-07-30T16:07:46.979Z,49923
2022-07-30T16:10:13.069Z,53553
2022-07-30T16:12:39.177Z,54516
2022-07-30T16:15:05.270Z,11015
2022-07-30T16:17:31.367Z,8272
2022-07-30T16:19:57.461Z,7445
2022-07-30T16:22:22.581Z,6714
2022-07-30T16:24:47.707Z,6421
2022-07-30T16:27:13.801Z,11344
2022-07-30T16:29:39.917Z,16319
2022-07-30T16:32:05.977Z,12773
2022-07-30T16:34:32.074Z,24511
2022-07-30T16:36:58.183Z,11934
2022-07-30T16:39:24.263Z,41377
2022-07-30T16:41:50.367Z,39193
2022-07-30T16:44:16.472Z,37233
2022-07-30T16:46:42.549Z,34599
2022-07-30T16:49:08.655Z,33314
2022-07-30T16:51:34.751Z,34824
2022-07-30T16:54:00.854Z,31772
2022-07-30T16:56:25.993Z,35787
2022-07-30T16:58:52.064Z,26889
2022-07-30T17:01:18.148Z,31707
2022-07-30T17:03:44.244Z,22359
2022-07-30T17:06:10.346Z,31033
2022-07-30T17:08:36.441Z,28945
2022-07-30T17:11:02.539Z,27146
2022-07-30T17:13:27.658Z,24447
2022-07-30T17:15:52.803Z,21556
2022-07-30T17:18:17.902Z,24640
2022-07-30T17:20:43.006Z,23804
2022-07-30T17:23:09.150Z,25090
2022-07-30T17:25:35.194Z,24511
2022-07-30T17:28:01.295Z,6449
2022-07-30T17:30:27.397Z,18375
2022-07-30T17:32:53.507Z,5589
2022-07-30T17:35:19.569Z,5356
2022-07-30T17:37:45.702Z,7766
2022-07-30T17:40:11.786Z,6192
2022-07-30T17:42:36.882Z,5107
2022-07-30T17:45:02.977Z,4011
2022-07-30T17:47:29.080Z,4031
2022-07-30T17:49:55.185Z,4557
2022-07-30T17:52:21.280Z,4336
2022-07-30T17:54:47.378Z,3517
2022-07-30T17:57:13.497Z,3417
2022-07-30T17:59:39.561Z,3594
2022-07-30T18:02:05.661Z,2975
2022-07-30T18:04:31.753Z,2710
2022-07-30T18:06:57.854Z,2682
2022-07-30T18:09:22.999Z,2477
2022-07-30T18:11:48.078Z,2276
2022-07-30T18:14:14.184Z,2196
2022-07-30T18:16:40.280Z,2244
2022-07-30T18:19:06.376Z,1963
2022-07-30T18:21:32.467Z,1891
2022-07-30T18:23:58.564Z,1843
2022-07-30T18:26:24.655Z,1754
2022-07-30T18:28:50.778Z,1726
2022-07-30T18:31:16.829Z,1726
2022-07-30T18:33:42.935Z,1943
2022-07-30T18:38:35.128Z,1393
2022-07-30T18:41:01.219Z,1196
2022-07-30T18:43:26.343Z,1096
2022-07-30T18:45:52.434Z,995
2022-07-30T18:48:18.530Z,835
2022-07-30T18:50:44.620Z,742
2022-07-30T18:53:10.715Z,650
2022-07-30T18:55:36.810Z,534
2022-07-30T18:58:02.925Z,453
2022-07-30T19:00:29.009Z,381
2022-07-30T19:02:54.172Z,313
2022-07-30T19:05:19.251Z,240
2022-07-30T19:07:45.338Z,180
2022-07-30T19:10:10.454Z,132
2022-07-30T19:12:35.573Z,100
2022-07-30T19:15:00.679Z,72
2022-07-30T19:17:25.811Z,56
2022-07-30T19:19:50.911Z,40
2022-07-30T19:22:16.032Z,24
2022-07-30T19:24:42.134Z,20
2022-07-30T19:27:08.233Z,12
2022-07-30T19:29:34.324Z,12
2022-07-30T19:32:00.435Z,8
2022-07-30T19:34:26.525Z,4
2022-07-30T19:36:52.602Z,0
2022-07-30T19:39:18.691Z,4
2022-07-30T19:41:44.792Z,0
2022-07-30T19:44:10.912Z,0
2022-07-30T19:46:37.021Z,0
2022-07-30T19:49:03.083Z,0
2022-07-30T19:51:29.176Z,0
2022-07-30T19:53:54.302Z,0
2022-07-30T19:56:20.402Z,0
2022-07-30T19:58:46.478Z,0
2022-07-30T20:01:12.570Z,0
2022-07-30T20:03:38.689Z,0
2022-07-30T20:06:04.761Z,0
2022-07-30T20:08:30.902Z,0
2022-07-30T20:10:55.980Z,0
2022-07-30T20:13:21.107Z,0
2022-07-30T20:15:46.253Z,0
2022-07-30T20:18:11.333Z,0
2022-07-30T20:20:36.473Z,0
2022-07-30T20:23:01.582Z,0
2022-07-30T20:25:27.652Z,0
2022-07-30T20:27:53.764Z,0
2022-07-30T20:30:19.859Z,0
2022-07-30T20:32:45.969Z,0
2022-07-30T20:35:12.030Z,0
2022-07-30T20:37:38.118Z,0
2022-07-30T20:40:04.221Z,0
2022-07-30T20:42:30.348Z,0
2022-07-30T20:44:56.444Z,0
2022-07-30T20:47:22.508Z,0
2022-07-30T20:49:48.609Z,0
2022-07-30T20:52:14.728Z,0
2022-07-30T20:54:39.808Z,0
2022-07-30T20:57:06.375Z,0
2022-07-30T20:59:32.005Z,0
2022-07-30T21:01:58.085Z,0
2022-07-30T21:04:24.182Z,0
2022-07-30T21:06:50.286Z,0
2022-07-30T21:09:16.386Z,0
2022-07-30T21:11:41.502Z,0
2022-07-30T21:14:06.637Z,0
2022-07-30T21:16:32.714Z,0
2022-07-30T21:18:58.805Z,0
2022-07-30T21:21:24.890Z,0
2022-07-30T21:23:50.990Z,0
2022-07-30T21:26:17.103Z,0
2022-07-30T21:28:43.197Z,0
2022-07-30T21:31:09.279Z,0
2022-07-30T21:33:35.390Z,0
2022-07-30T21:36:01.462Z,0
2022-07-30T21:38:27.562Z,0
2022-07-30T21:40:53.655Z,0
2022-07-30T21:43:19.748Z,0
2022-07-30T21:45:44.899Z,0
2022-07-30T21:48:10.958Z,0
2022-07-30T21:50:37.062Z,0
2022-07-30T21:53:03.155Z,0
2022-07-30T21:55:29.250Z,0
2022-07-30T21:57:55.348Z,0
2022-07-30T22:00:21.451Z,0
2022-07-30T22:02:46.572Z,0
2022-07-30T22:05:11.700Z,0
2022-07-30T22:07:37.769Z,0
2022-07-30T22:10:03.864Z,0
2022-07-30T22:12:29.969Z,0
2022-07-30T22:14:56.084Z,0
2022-07-30T22:17:22.147Z,0
2022-07-30T22:19:48.264Z,0
2022-07-30T22:22:14.338Z,0
2022-07-30T22:24:40.439Z,0
2022-07-30T22:27:06.523Z,0
2022-07-30T22:29:32.622Z,0
2022-07-30T22:31:58.744Z,0
2022-07-30T22:34:24.866Z,0
2022-07-30T22:36:49.962Z,0
2022-07-30T22:39:16.052Z,0
2022-07-30T22:41:42.131Z,0
2022-07-30T22:44:08.226Z,0
2022-07-30T22:46:34.326Z,0
2022-07-30T22:49:00.419Z,0
2022-07-30T22:51:26.522Z,0
2022-07-30T22:53:51.646Z,0
2022-07-30T22:56:16.764Z,0
2022-07-30T22:58:42.842Z,0
2022-07-30T23:01:08.928Z,0
2022-07-30T23:03:35.055Z,0
2022-07-30T23:06:01.126Z,0
2022-07-30T23:08:28.202Z,0
2022-07-30T23:10:53.299Z,0
2022-07-30T23:13:19.401Z,0
2022-07-30T23:15:45.503Z,0
2022-07-30T23:18:11.594Z,0
2022-07-30T23:20:37.672Z,0
2022-07-30T23:23:03.778Z,0
2022-07-30T23:25:29.873Z,0
2022-07-30T23:27:54.989Z,0
2022-07-30T23:30:21.075Z,0
2022-07-30T23:32:47.170Z,0
2022-07-30T23:35:13.268Z,0
2022-07-30T23:37:39.367Z,0
2022-07-30T23:40:05.467Z,0
2022-07-30T23:42:31.599Z,0
2022-07-30T23:44:56.675Z,0
2022-07-30T23:47:21.788Z,0
2022-07-30T23:49:46.897Z,0
2022-07-30T23:52:12.017Z,0
2022-07-30T23:54:37.145Z,0
2022-07-30T23:57:02.245Z,0
2022-07-30T23:59:27.638Z,0
